createdAt,value
2018-03-22T00:00:57.463Z,3.87
2018-03-22T00:03:25.026Z,4.43
2018-03-22T00:05:52.543Z,5.50
2018-03-22T00:08:20.075Z,5.33
2018-03-22T00:10:48.357Z,5.43
2018-03-22T00:13:16.697Z,4.70
2018-03-22T00:15:44.220Z,4.90
2018-03-22T00:18:11.741Z,4.73
2018-03-22T00:20:39.255Z,5.13
2018-03-22T00:23:06.783Z,6.10
2018-03-22T00:25:35.052Z,6.30
2018-03-22T00:28:03.347Z,6.80
2018-03-22T00:30:30.909Z,5.43
2018-03-22T00:32:58.441Z,5.50
2018-03-22T00:35:25.953Z,5.57
2018-03-22T00:37:53.484Z,5.77
2018-03-22T00:40:21.767Z,6.27
2018-03-22T00:42:49.281Z,5.37
2018-03-22T00:45:16.808Z,6.63
2018-03-22T00:47:44.317Z,5.57
2018-03-22T00:50:11.840Z,6.40
2018-03-22T00:52:39.356Z,6.03
2018-03-22T00:55:07.661Z,5.97
2018-03-22T00:57:35.172Z,6.17
2018-03-22T01:00:02.708Z,7.27
2018-03-22T01:02:30.227Z,6.00
2018-03-22T01:04:57.757Z,6.80
2018-03-22T01:07:25.273Z,6.73
2018-03-22T01:09:52.797Z,6.10
2018-03-22T01:12:20.324Z,6.33
2018-03-22T01:14:47.852Z,5.73
2018-03-22T01:17:15.364Z,6.03
2018-03-22T01:19:43.656Z,5.63
2018-03-22T01:22:11.923Z,6.50
2018-03-22T01:24:39.457Z,6.80
2018-03-22T01:27:06.997Z,5.70
2018-03-22T01:29:34.524Z,7.27
2018-03-22T01:32:02.048Z,5.10
2018-03-22T01:34:30.044Z,5.50
2018-03-22T01:36:58.317Z,5.80
2018-03-22T01:39:26.608Z,5.40
2018-03-22T01:41:54.129Z,4.77
2018-03-22T01:44:21.652Z,4.90
2018-03-22T01:46:49.165Z,5.67
2018-03-22T01:49:17.461Z,5.30
2018-03-22T01:51:44.978Z,5.60
2018-03-22T01:54:12.500Z,5.70
2018-03-22T01:56:40.012Z,5.00
2018-03-22T01:59:07.565Z,5.97
2018-03-22T02:01:35.079Z,4.70
2018-03-22T02:04:02.584Z,6.03
2018-03-22T02:06:30.151Z,5.97
2018-03-22T02:08:57.638Z,4.70
2018-03-22T02:11:25.936Z,5.33
2018-03-22T02:13:53.458Z,5.90
2018-03-22T02:16:21.756Z,5.37
2018-03-22T02:18:49.269Z,5.80
2018-03-22T02:21:16.793Z,5.37
2018-03-22T02:23:44.304Z,6.43
2018-03-22T02:26:11.849Z,6.30
2018-03-22T02:28:39.368Z,5.90
2018-03-22T02:31:06.897Z,5.90
2018-03-22T02:33:35.172Z,6.60
2018-03-22T02:36:03.472Z,6.90
2018-03-22T02:38:30.993Z,6.27
2018-03-22T02:40:58.531Z,8.37
2018-03-22T02:43:26.058Z,7.37
2018-03-22T02:45:53.622Z,6.70
2018-03-22T02:48:21.146Z,6.40
2018-03-22T02:50:49.436Z,6.90
2018-03-22T02:53:16.944Z,7.80
2018-03-22T02:55:44.473Z,8.20
2018-03-22T02:58:12.002Z,7.30
2018-03-22T03:00:40.304Z,7.03
2018-03-22T03:03:07.827Z,7.80
2018-03-22T03:05:35.347Z,8.50
2018-03-22T03:08:02.866Z,7.77
2018-03-22T03:10:31.168Z,7.83
2018-03-22T03:12:58.685Z,7.77
2018-03-22T03:15:26.212Z,8.10
2018-03-22T03:17:53.725Z,8.27
2018-03-22T03:20:22.000Z,8.50
2018-03-22T03:22:50.288Z,8.33
2018-03-22T03:25:18.569Z,7.70
2018-03-22T03:27:46.102Z,9.27
2018-03-22T03:30:13.612Z,7.60
2018-03-22T03:32:41.146Z,7.70
2018-03-22T03:35:09.429Z,8.07
2018-03-22T03:37:36.968Z,8.00
2018-03-22T03:40:05.253Z,8.47
2018-03-22T03:42:32.796Z,9.23
2018-03-22T03:45:00.310Z,8.90
2018-03-22T03:47:27.841Z,7.70
2018-03-22T03:49:56.118Z,8.30
2018-03-22T03:52:24.409Z,7.90
2018-03-22T03:54:51.929Z,7.80
2018-03-22T03:57:19.453Z,8.43
2018-03-22T03:59:46.966Z,8.20
2018-03-22T04:02:15.251Z,8.50
2018-03-22T04:04:43.535Z,9.40
2018-03-22T04:07:11.062Z,8.00
2018-03-22T04:09:38.578Z,8.80
2018-03-22T04:12:06.158Z,8.30
2018-03-22T04:14:33.643Z,7.53
2018-03-22T04:17:01.173Z,7.47
2018-03-22T04:19:28.684Z,7.43
2018-03-22T04:21:56.972Z,8.30
2018-03-22T04:24:24.480Z,9.30
2018-03-22T04:26:52.056Z,8.00
2018-03-22T04:29:19.537Z,8.77
2018-03-22T04:31:47.836Z,8.40
2018-03-22T04:34:15.361Z,8.20
2018-03-22T04:36:42.900Z,8.60
2018-03-22T04:39:10.403Z,8.73
2018-03-22T04:41:38.681Z,9.40
2018-03-22T04:44:06.972Z,9.00
2018-03-22T04:46:34.494Z,8.27
2018-03-22T04:49:02.020Z,8.10
2018-03-22T04:51:29.540Z,8.33
2018-03-22T04:53:57.067Z,9.10
2018-03-22T04:56:24.574Z,8.67
2018-03-22T04:58:52.109Z,9.00
2018-03-22T05:01:20.401Z,8.70
2018-03-22T05:03:47.933Z,8.60
2018-03-22T05:06:15.444Z,9.07
2018-03-22T05:08:42.985Z,8.70
2018-03-22T05:11:10.504Z,9.00
2018-03-22T05:13:38.033Z,8.13
2018-03-22T05:16:05.629Z,8.93
2018-03-22T05:18:33.160Z,8.07
2018-03-22T05:21:00.699Z,7.93
2018-03-22T05:23:28.228Z,8.80
2018-03-22T05:25:56.524Z,9.50
2018-03-22T05:28:24.057Z,8.43
2018-03-22T05:30:52.340Z,8.77
2018-03-22T05:33:20.637Z,10.57
2018-03-22T05:35:48.156Z,8.23
2018-03-22T05:38:15.702Z,9.10
2018-03-22T05:40:43.211Z,8.80
2018-03-22T05:43:11.505Z,9.00
2018-03-22T05:45:39.033Z,8.90
2018-03-22T05:48:07.337Z,9.43
2018-03-22T05:50:34.865Z,9.13
2018-03-22T05:53:03.161Z,8.93
2018-03-22T05:55:31.436Z,9.17
2018-03-22T05:57:59.756Z,10.97
2018-03-22T06:00:27.341Z,10.17
2018-03-22T06:02:54.844Z,9.37
2018-03-22T06:05:22.372Z,10.43
2018-03-22T06:07:49.889Z,10.27
2018-03-22T06:10:17.498Z,9.90
2018-03-22T06:12:45.045Z,10.23
2018-03-22T06:15:12.575Z,9.80
2018-03-22T06:17:40.094Z,9.70
2018-03-22T06:20:08.406Z,9.43
2018-03-22T06:22:35.928Z,9.93
2018-03-22T06:25:03.474Z,8.57
2018-03-22T06:27:30.985Z,8.67
2018-03-22T06:29:58.508Z,7.97
2018-03-22T06:32:26.792Z,7.90
2018-03-22T06:34:54.335Z,8.63
2018-03-22T06:37:22.604Z,8.90
2018-03-22T06:39:50.133Z,9.20
2018-03-22T06:42:17.658Z,10.70
2018-03-22T06:44:45.252Z,10.20
2018-03-22T06:47:12.821Z,9.93
2018-03-22T06:49:40.354Z,8.93
2018-03-22T06:52:07.878Z,10.23
2018-03-22T06:54:36.173Z,9.60
2018-03-22T06:57:03.751Z,10.90
2018-03-22T06:59:31.305Z,10.37
2018-03-22T07:01:58.910Z,11.47
2018-03-22T07:04:26.448Z,11.17
2018-03-22T07:06:54.071Z,11.80
2018-03-22T07:09:22.368Z,11.80
2018-03-22T07:11:49.883Z,11.70
2018-03-22T07:14:17.397Z,10.50
2018-03-22T07:16:44.933Z,10.97
2018-03-22T07:19:13.217Z,11.50
2018-03-22T07:21:40.772Z,11.10
2018-03-22T07:24:08.329Z,10.00
2018-03-22T07:26:36.654Z,9.63
2018-03-22T07:29:04.165Z,10.83
2018-03-22T07:31:31.719Z,9.97
2018-03-22T07:33:59.234Z,9.70
2018-03-22T07:36:26.788Z,8.80
2018-03-22T07:38:54.316Z,7.70
2018-03-22T07:41:21.849Z,8.40
2018-03-22T07:43:49.382Z,6.97
2018-03-22T07:46:17.684Z,6.97
2018-03-22T07:48:45.309Z,8.07
2018-03-22T07:51:12.843Z,7.50
2018-03-22T07:53:40.357Z,7.37
2018-03-22T07:56:08.715Z,6.30
2018-03-22T07:58:36.269Z,7.00
2018-03-22T08:01:03.804Z,6.43
2018-03-22T08:03:31.323Z,5.93
2018-03-22T08:05:58.878Z,5.60
2018-03-22T08:08:27.148Z,5.00
2018-03-22T08:10:55.448Z,4.93
2018-03-22T08:13:22.964Z,5.57
2018-03-22T08:15:50.496Z,7.00
2018-03-22T08:18:18.004Z,6.10
2018-03-22T08:20:46.296Z,6.50
2018-03-22T08:23:13.808Z,6.70
2018-03-22T08:25:41.321Z,5.93
2018-03-22T08:28:08.848Z,5.20
2018-03-22T08:30:36.361Z,5.60
2018-03-22T08:33:03.900Z,5.57
2018-03-22T08:35:31.429Z,6.80
2018-03-22T08:37:58.953Z,6.10
2018-03-22T08:40:26.476Z,6.90
2018-03-22T08:42:54.038Z,6.50
2018-03-22T08:45:21.556Z,6.13
2018-03-22T08:47:49.089Z,6.17
2018-03-22T08:50:16.607Z,6.17
2018-03-22T08:52:44.898Z,6.83
2018-03-22T08:55:12.458Z,7.10
2018-03-22T08:57:39.985Z,6.27
2018-03-22T09:00:07.497Z,7.70
2018-03-22T09:02:35.024Z,6.97
2018-03-22T09:05:03.311Z,6.40
2018-03-22T09:07:30.876Z,6.47
2018-03-22T09:09:58.393Z,5.53
2018-03-22T09:12:25.913Z,6.70
2018-03-22T09:14:53.426Z,6.30
2018-03-22T09:17:20.948Z,7.73
2018-03-22T09:19:48.462Z,6.60
2018-03-22T09:22:16.769Z,6.10
2018-03-22T09:24:44.275Z,5.83
2018-03-22T09:27:11.804Z,6.73
2018-03-22T09:29:39.323Z,6.57
2018-03-22T09:32:07.612Z,5.73
2018-03-22T09:34:35.122Z,5.83
2018-03-22T09:37:02.656Z,6.73
2018-03-22T09:39:30.185Z,6.87
2018-03-22T09:41:57.731Z,6.30
2018-03-22T09:44:26.013Z,5.87
2018-03-22T09:46:54.290Z,6.53
2018-03-22T09:49:22.581Z,7.57
2018-03-22T09:51:50.092Z,8.00
2018-03-22T09:54:17.620Z,7.50
2018-03-22T09:56:45.140Z,7.27
2018-03-22T09:59:13.457Z,7.53
2018-03-22T10:01:40.971Z,6.73
2018-03-22T10:04:09.276Z,8.73
2018-03-22T10:06:36.809Z,9.23
2018-03-22T10:09:05.144Z,9.40
2018-03-22T10:11:32.668Z,8.60
2018-03-22T10:14:00.205Z,9.90
2018-03-22T10:16:27.723Z,10.67
2018-03-22T10:18:55.269Z,7.57
2018-03-22T10:21:22.780Z,9.20
2018-03-22T10:23:51.090Z,11.30
2018-03-22T10:26:18.608Z,10.17
2018-03-22T10:28:46.901Z,8.47
2018-03-22T10:31:14.431Z,7.60
2018-03-22T10:33:41.980Z,9.50
2018-03-22T10:36:09.502Z,9.53
2018-03-22T10:38:37.040Z,9.90
2018-03-22T10:41:04.560Z,10.63
2018-03-22T10:43:32.092Z,9.60
2018-03-22T10:45:59.622Z,10.53
2018-03-22T10:48:27.193Z,10.80
2018-03-22T10:50:54.695Z,11.60
2018-03-22T10:53:22.225Z,12.87
2018-03-22T10:55:50.532Z,12.37
2018-03-22T10:58:18.065Z,11.60
2018-03-22T11:00:51.924Z,12.63
2018-03-22T11:03:25.037Z,12.87
2018-03-22T11:05:52.612Z,12.20
2018-03-22T11:08:20.093Z,12.60
2018-03-22T11:10:48.381Z,12.60
2018-03-22T11:13:15.915Z,12.80
2018-03-22T11:15:43.457Z,12.97
2018-03-22T11:18:10.974Z,12.17
2018-03-22T11:20:38.517Z,14.10
2018-03-22T11:23:06.800Z,12.50
2018-03-22T11:25:34.332Z,13.97
2018-03-22T11:28:01.848Z,13.87
2018-03-22T11:30:29.388Z,14.37
2018-03-22T11:32:56.916Z,14.03
2018-03-22T11:35:24.448Z,15.53
2018-03-22T11:37:51.973Z,13.00
2018-03-22T11:40:19.504Z,14.23
2018-03-22T11:42:47.784Z,14.83
2018-03-22T11:45:16.084Z,14.60
2018-03-22T11:47:43.605Z,13.63
2018-03-22T11:50:11.143Z,14.10
2018-03-22T11:52:38.665Z,17.00
2018-03-22T11:55:06.204Z,15.60
2018-03-22T11:57:34.489Z,14.57
2018-03-22T12:00:02.057Z,14.80
2018-03-22T12:02:29.590Z,13.87
2018-03-22T12:04:57.135Z,14.30
2018-03-22T12:07:24.653Z,15.13
2018-03-22T12:09:52.197Z,14.37
2018-03-22T12:12:19.720Z,13.10
2018-03-22T12:14:47.246Z,14.60
2018-03-22T12:17:14.802Z,16.30
2018-03-22T12:19:42.330Z,14.80
2018-03-22T12:22:10.783Z,15.50
2018-03-22T12:24:39.077Z,13.30
2018-03-22T12:27:07.772Z,16.53
2018-03-22T12:29:36.058Z,16.40
2018-03-22T12:32:03.593Z,15.40
2018-03-22T12:34:31.873Z,14.87
2018-03-22T12:37:00.194Z,15.23
2018-03-22T12:39:27.717Z,14.90
2018-03-22T12:41:56.016Z,14.90
2018-03-22T12:44:23.528Z,15.30
2018-03-22T12:46:51.068Z,15.73
2018-03-22T12:49:18.577Z,14.53
2018-03-22T12:51:46.109Z,16.13
2018-03-22T12:54:13.630Z,12.80
2018-03-22T12:56:41.254Z,13.30
2018-03-22T12:59:08.796Z,15.00
2018-03-22T13:01:37.130Z,15.00
2018-03-22T13:04:04.658Z,14.00
2018-03-22T13:06:32.189Z,14.53
2018-03-22T13:08:59.729Z,13.37
2018-03-22T13:11:27.274Z,15.20
2018-03-22T13:13:54.800Z,14.97
2018-03-22T13:16:22.332Z,13.33
2018-03-22T13:18:49.909Z,14.43
2018-03-22T13:21:18.210Z,13.60
2018-03-22T13:23:45.728Z,13.37
2018-03-22T13:26:13.260Z,13.27
2018-03-22T13:28:40.775Z,12.77
2018-03-22T13:31:08.319Z,12.40
2018-03-22T13:33:36.630Z,12.20
2018-03-22T13:36:04.158Z,11.83
2018-03-22T13:38:32.471Z,12.60
2018-03-22T13:40:59.989Z,12.93
2018-03-22T13:43:28.284Z,12.90
2018-03-22T13:45:56.571Z,11.60
2018-03-22T13:48:24.104Z,10.53
2018-03-22T13:50:52.391Z,11.73
2018-03-22T13:53:20.692Z,10.50
2018-03-22T13:55:48.213Z,11.03
2018-03-22T13:58:15.749Z,11.00
2018-03-22T14:00:43.270Z,11.10
2018-03-22T14:03:10.809Z,9.80
2018-03-22T14:05:39.104Z,10.57
2018-03-22T14:08:06.636Z,9.93
2018-03-22T14:10:34.164Z,9.43
2018-03-22T14:13:01.691Z,8.60
2018-03-22T14:15:29.226Z,9.30
2018-03-22T14:17:57.529Z,9.43
2018-03-22T14:20:25.075Z,8.80
2018-03-22T14:22:53.375Z,9.20
2018-03-22T14:25:20.887Z,8.63
2018-03-22T14:27:48.426Z,9.70
2018-03-22T14:30:15.940Z,9.30
2018-03-22T14:32:43.477Z,9.63
2018-03-22T14:35:11.770Z,9.93
2018-03-22T14:37:40.071Z,8.00
2018-03-22T14:40:07.590Z,9.07
2018-03-22T14:42:35.912Z,9.70
2018-03-22T14:45:03.460Z,8.00
2018-03-22T14:47:30.984Z,9.20
2018-03-22T14:49:58.500Z,9.53
2018-03-22T14:52:26.024Z,9.27
2018-03-22T14:54:53.616Z,8.23
2018-03-22T14:57:21.135Z,7.90
2018-03-22T14:59:49.432Z,8.70
2018-03-22T15:02:16.949Z,8.97
2018-03-22T15:04:44.477Z,7.83
2018-03-22T15:07:11.990Z,7.80
2018-03-22T15:09:40.289Z,8.37
2018-03-22T15:12:07.805Z,8.40
2018-03-22T15:14:35.361Z,8.37
2018-03-22T15:17:02.868Z,8.40
2018-03-22T15:19:31.167Z,8.10
2018-03-22T15:21:58.723Z,8.07
2018-03-22T15:24:26.252Z,7.47
2018-03-22T15:26:54.540Z,6.60
2018-03-22T15:29:22.823Z,7.20
2018-03-22T15:31:50.338Z,7.80
2018-03-22T15:34:17.872Z,8.10
2018-03-22T15:36:45.385Z,7.97
2018-03-22T15:39:13.680Z,7.57
2018-03-22T15:41:41.184Z,6.43
2018-03-22T15:44:08.710Z,7.13
2018-03-22T15:46:36.228Z,7.90
2018-03-22T15:49:03.752Z,7.93
2018-03-22T15:51:31.260Z,6.60
2018-03-22T15:53:59.547Z,8.33
2018-03-22T15:56:27.823Z,7.20
2018-03-22T15:58:56.113Z,6.80
2018-03-22T16:01:23.642Z,6.90
2018-03-22T16:03:51.188Z,7.20
2018-03-22T16:06:18.709Z,6.70
2018-03-22T16:08:47.585Z,7.00
2018-03-22T16:11:15.108Z,6.70
2018-03-22T16:13:42.622Z,7.33
2018-03-22T16:16:10.168Z,7.30
2018-03-22T16:18:37.689Z,7.47
2018-03-22T16:21:05.223Z,6.90
2018-03-22T16:23:32.781Z,6.70
2018-03-22T16:26:00.310Z,6.90
2018-03-22T16:28:27.825Z,6.43
2018-03-22T16:30:55.353Z,6.67
2018-03-22T16:33:23.633Z,6.67
2018-03-22T16:35:51.177Z,5.90
2018-03-22T16:38:18.693Z,6.20
2018-03-22T16:40:46.993Z,6.80
2018-03-22T16:43:14.513Z,5.60
2018-03-22T16:45:42.040Z,6.17
2018-03-22T16:48:09.545Z,6.13
2018-03-22T16:50:37.072Z,6.30
2018-03-22T16:53:04.586Z,5.13
2018-03-22T16:55:32.880Z,5.67
2018-03-22T16:58:00.411Z,5.10
2018-03-22T17:00:28.709Z,5.27
2018-03-22T17:02:56.994Z,5.67
2018-03-22T17:05:24.524Z,6.80
2018-03-22T17:07:52.067Z,5.80
2018-03-22T17:10:19.586Z,5.83
2018-03-22T17:12:47.126Z,5.33
2018-03-22T17:15:14.648Z,6.20
2018-03-22T17:17:42.156Z,6.30
2018-03-22T17:20:09.700Z,6.73
2018-03-22T17:22:37.218Z,6.57
2018-03-22T17:25:04.742Z,6.70
2018-03-22T17:27:32.292Z,7.60
2018-03-22T17:29:59.804Z,6.50
2018-03-22T17:32:28.108Z,6.47
2018-03-22T17:34:56.385Z,5.47
2018-03-22T17:37:24.681Z,6.53
2018-03-22T17:39:52.195Z,6.70
2018-03-22T17:42:19.725Z,6.80
2018-03-22T17:44:47.228Z,7.77
2018-03-22T17:47:14.758Z,7.60
2018-03-22T17:49:42.288Z,6.13
2018-03-22T17:52:09.828Z,7.20
2018-03-22T17:54:38.108Z,7.17
2018-03-22T17:57:06.424Z,7.20
2018-03-22T17:59:33.928Z,7.50
2018-03-22T18:02:02.220Z,8.53
2018-03-22T18:04:30.492Z,6.40
2018-03-22T18:06:58.780Z,7.57
2018-03-22T18:09:26.301Z,7.70
2018-03-22T18:11:53.833Z,7.87
2018-03-22T18:14:21.365Z,7.37
2018-03-22T18:16:48.892Z,7.83
2018-03-22T18:19:16.404Z,7.20
2018-03-22T18:21:43.928Z,8.20
2018-03-22T18:24:12.228Z,8.20
2018-03-22T18:26:39.757Z,8.10
2018-03-22T18:29:08.032Z,7.70
2018-03-22T18:31:36.332Z,9.60
2018-03-22T18:34:04.612Z,9.10
2018-03-22T18:36:32.117Z,8.20
2018-03-22T18:38:59.654Z,7.27
2018-03-22T18:41:27.168Z,8.30
2018-03-22T18:43:55.464Z,7.93
2018-03-22T18:46:23.748Z,8.10
2018-03-22T18:48:51.272Z,9.60
2018-03-22T18:51:18.782Z,7.50
2018-03-22T18:53:46.321Z,8.77
2018-03-22T18:56:14.600Z,7.90
2018-03-22T18:58:42.128Z,7.53
2018-03-22T19:01:09.780Z,7.23
2018-03-22T19:03:37.308Z,7.90
2018-03-22T19:06:04.876Z,7.00
2018-03-22T19:08:33.228Z,8.30
2018-03-22T19:11:00.740Z,7.20
2018-03-22T19:13:28.263Z,7.07
2018-03-22T19:15:55.786Z,6.77
2018-03-22T19:18:24.088Z,6.80
2018-03-22T19:20:51.614Z,8.33
2018-03-22T19:23:19.167Z,8.27
2018-03-22T19:25:46.685Z,7.17
2018-03-22T19:28:14.218Z,7.73
2018-03-22T19:30:42.499Z,6.97
2018-03-22T19:33:10.037Z,7.40
2018-03-22T19:35:38.336Z,7.07
2018-03-22T19:38:06.634Z,7.60
2018-03-22T19:40:34.160Z,7.67
2018-03-22T19:43:02.452Z,7.77
2018-03-22T19:45:30.732Z,7.27
2018-03-22T19:47:58.269Z,6.77
2018-03-22T19:50:26.553Z,6.57
2018-03-22T19:52:54.859Z,7.37
2018-03-22T19:55:22.394Z,7.70
2018-03-22T19:57:50.668Z,7.73
2018-03-22T20:00:18.961Z,7.30
2018-03-22T20:02:46.477Z,7.40
2018-03-22T20:05:14.009Z,7.33
2018-03-22T20:07:41.512Z,7.77
2018-03-22T20:10:09.815Z,7.00
2018-03-22T20:12:38.092Z,7.10
2018-03-22T20:15:06.380Z,7.50
2018-03-22T20:17:33.892Z,8.07
2018-03-22T20:20:01.412Z,6.97
2018-03-22T20:22:28.936Z,7.03
2018-03-22T20:24:57.229Z,7.47
2018-03-22T20:27:25.508Z,7.43
2018-03-22T20:29:53.803Z,8.00
2018-03-22T20:32:21.318Z,7.33
2018-03-22T20:34:48.844Z,7.40
2018-03-22T20:37:16.360Z,7.00
2018-03-22T20:39:43.904Z,6.93
2018-03-22T20:42:11.419Z,7.43
2018-03-22T20:44:38.945Z,7.30
2018-03-22T20:47:07.220Z,8.00
2018-03-22T20:49:35.507Z,8.20
2018-03-22T20:52:03.014Z,8.57
2018-03-22T20:54:31.324Z,8.10
2018-03-22T20:56:59.595Z,8.37
2018-03-22T20:59:27.137Z,8.37
2018-03-22T21:01:54.649Z,8.70
2018-03-22T21:04:22.176Z,7.20
2018-03-22T21:06:50.461Z,8.67
2018-03-22T21:09:18.751Z,8.30
2018-03-22T21:11:46.270Z,8.40
2018-03-22T21:14:13.815Z,9.83
2018-03-22T21:16:41.324Z,8.40
2018-03-22T21:19:09.643Z,8.40
2018-03-22T21:21:37.163Z,8.40
2018-03-22T21:24:05.453Z,7.50
2018-03-22T21:26:32.980Z,7.57
2018-03-22T21:29:00.492Z,7.87
2018-03-22T21:31:28.020Z,9.20
2018-03-22T21:33:56.300Z,7.13
2018-03-22T21:36:24.679Z,8.33
2018-03-22T21:38:52.963Z,7.67
2018-03-22T21:41:21.252Z,8.10
2018-03-22T21:44:00.512Z,8.97
2018-03-22T21:46:28.049Z,8.30
2018-03-22T21:48:55.565Z,8.00
2018-03-22T21:51:23.108Z,7.63
2018-03-22T21:53:50.632Z,7.33
2018-03-22T21:56:18.173Z,8.10
2018-03-22T21:58:45.684Z,7.17
2018-03-22T22:01:13.264Z,7.57
2018-03-22T22:03:40.778Z,6.90
2018-03-22T22:06:08.309Z,6.70
2018-03-22T22:08:36.597Z,7.30
2018-03-22T22:11:04.128Z,7.60
2018-03-22T22:13:31.648Z,7.40
2018-03-22T22:15:59.176Z,6.80
2018-03-22T22:18:26.724Z,8.00
2018-03-22T22:20:55.025Z,7.63
2018-03-22T22:23:22.542Z,7.90
2018-03-22T22:25:50.841Z,7.10
2018-03-22T22:28:19.931Z,10.00
2018-03-22T22:30:48.224Z,7.60
2018-03-22T22:33:15.745Z,6.90
2018-03-22T22:35:43.252Z,7.33
2018-03-22T22:38:11.576Z,7.33
2018-03-22T22:40:39.105Z,6.70
2018-03-22T22:43:06.649Z,7.50
2018-03-22T22:45:34.164Z,7.50
2018-03-22T22:48:01.693Z,8.00
2018-03-22T22:50:29.212Z,7.07
2018-03-22T22:52:57.500Z,6.70
2018-03-22T22:55:25.009Z,7.47
2018-03-22T22:57:52.540Z,6.57
2018-03-22T23:00:20.054Z,6.70
2018-03-22T23:02:47.572Z,7.20
2018-03-22T23:05:15.081Z,6.87
2018-03-22T23:07:43.381Z,6.93
2018-03-22T23:10:11.662Z,7.20
2018-03-22T23:12:39.197Z,7.10
2018-03-22T23:15:07.476Z,7.13
2018-03-22T23:17:35.764Z,6.27
2018-03-22T23:20:04.049Z,7.43
2018-03-22T23:22:31.589Z,6.00
2018-03-22T23:24:59.869Z,6.40
2018-03-22T23:27:28.171Z,7.77
2018-03-22T23:29:55.690Z,8.60
2018-03-22T23:32:23.216Z,6.93
2018-03-22T23:34:50.715Z,6.90
2018-03-22T23:37:19.016Z,6.90
2018-03-22T23:39:47.298Z,6.80
2018-03-22T23:42:14.825Z,6.23
2018-03-22T23:44:42.337Z,6.03
2018-03-22T23:47:09.873Z,5.83
2018-03-22T23:49:37.392Z,6.60
2018-03-22T23:52:04.917Z,6.23
2018-03-22T23:54:32.437Z,6.30
2018-03-22T23:57:00.717Z,5.87
2018-03-22T23:59:29.013Z,6.50
